Hugo, OK

11:13 PM CDT on May 27, 2017 (GMT -0500)
Stamper Municipal

Weather History for KHHW - February, 2014

Change the Weather History Date:

Tuesday, February 18, 2014

  Actual Average Record
Temperature  
Mean Temperature 59 °F -  
Max Temperature 82 °F 58 °F 82 °F (2014)
Min Temperature 36 °F 37 °F 27 °F (2015)
Degree Days  
Heating Degree Days 6    
Growing Degree Days 9 (Base 50)    
Moisture  
Dew Point 44 °F    
Average Humidity 57    
Maximum Humidity 85    
Minimum Humidity 31    
Precipitation  
Precipitation 0.00 in - - ()
Sea Level Pressure  
Sea Level Pressure 29.97 in    
Wind  
Wind Speed 5 mph (SSE)    
Max Wind Speed 16 mph    
Max Gust Speed 24 mph    
Visibility 10 miles    
Events      
Averages and records for this station are not official NWS values.
T = Trace of Precipitation, MM = Missing Value Source: NWS Daily Summary

Daily Weather History Graph

Daily Weather History Graph

Search for Another Location

Airport or City:

Trip Planner

Search our weather history database for the weather conditions in past years. The results will help you decide how hot, cold, wet, or windy it might be!

Date:

Astronomy

Feb. 18, 2014 Rise Set
Actual Time 7:03 AM CST 6:08 PM CST
Civil Twilight 6:38 AM CST 6:34 PM CST
Nautical Twilight 6:08 AM CST 7:03 PM CST
Astronomical Twilight 5:39 AM CST 7:32 PM CST
Moon 9:50 PM CST (2/18) 8:47 AM CST (2/18)
Length of Visible Light 11h 56m
Length of Day
11h 05m
Waning Gibbous, 87% of the Moon is Illuminated
Feb 18
Waning Gibbous
Feb 22
Last Quarter
Mar 1
New
Mar 8
First Quarter
Mar 16
Full

Hourly Weather History & Observations

Time (CST) Temp. Windchill Dew Point Humidity Pressure Visibility Wind Dir Wind Speed Gust Speed Precip Events Conditions
12:15 AM 50.0 °F - 29.3 °F 45% 30.10 in 10.0 mi North 3.5 mph - N/A   Clear
12:35 AM 50.9 °F - 28.9 °F 43% 30.10 in 10.0 mi Calm Calm - N/A   Clear
12:55 AM 50.5 °F - 29.3 °F 44% 30.10 in 10.0 mi North 3.5 mph - N/A   Clear
1:15 AM 49.6 °F - 29.1 °F 45% 30.09 in 10.0 mi North 3.5 mph - N/A   Clear
1:35 AM 48.2 °F - 29.1 °F 48% 30.09 in 10.0 mi Calm Calm - N/A   Clear
1:55 AM 43.7 °F 41.1 °F 31.3 °F 62% 30.08 in 10.0 mi South 4.6 mph - N/A   Clear
2:15 AM 44.1 °F 40.8 °F 31.1 °F 60% 30.08 in 10.0 mi South 5.8 mph - N/A   Clear
2:35 AM 45.7 °F 43.4 °F 30.2 °F 55% 30.07 in 10.0 mi SSE 4.6 mph - N/A   Clear
2:55 AM 47.5 °F - 29.7 °F 50% 30.07 in 10.0 mi Calm Calm - N/A   Clear
3:15 AM 43.7 °F - 30.7 °F 60% 30.07 in 10.0 mi Calm Calm - N/A   Clear
3:35 AM 41.9 °F - 30.6 °F 64% 30.06 in 10.0 mi Calm Calm - N/A   Clear
3:55 AM 43.0 °F - 30.0 °F 60% 30.06 in 10.0 mi Calm Calm - N/A   Clear
4:15 AM 44.1 °F - 29.7 °F 57% 30.06 in 10.0 mi Calm Calm - N/A   Clear
4:35 AM 43.0 °F - 29.8 °F 60% 30.06 in 10.0 mi Calm Calm - N/A   Clear
4:55 AM 39.7 °F 37.6 °F 30.0 °F 68% 30.06 in 10.0 mi East 3.5 mph - N/A   Clear
5:15 AM 39.7 °F 36.5 °F 30.9 °F 71% 30.06 in 10.0 mi East 4.6 mph - N/A   Clear
5:35 AM 39.0 °F 35.7 °F 31.1 °F 73% 30.06 in 10.0 mi East 4.6 mph - N/A   Clear
5:55 AM 38.7 °F - 32.0 °F 77% 30.06 in 10.0 mi Calm Calm - N/A   Clear
6:15 AM 38.7 °F 36.3 °F 32.0 °F 77% 30.05 in 10.0 mi ENE 3.5 mph - N/A   Clear
6:35 AM 38.3 °F - 32.0 °F 78% 30.05 in 10.0 mi Calm Calm - N/A   Clear
6:55 AM 37.8 °F 34.2 °F 31.5 °F 78% 30.05 in 10.0 mi NE 4.6 mph - N/A   Clear
7:15 AM 36.0 °F 32.1 °F 31.1 °F 82% 30.05 in 10.0 mi NE 4.6 mph - N/A   Clear
7:35 AM 36.5 °F 33.9 °F 31.3 °F 81% 30.05 in 10.0 mi NE 3.5 mph - N/A   Clear
7:55 AM 38.1 °F 32.9 °F 31.8 °F 78% 30.05 in 10.0 mi ENE 6.9 mph - N/A   Clear
8:15 AM 43.3 °F - 34.2 °F 70% 30.04 in 10.0 mi Calm Calm - N/A   Clear
8:35 AM 48.2 °F - 36.0 °F 63% 30.05 in 10.0 mi ESE 5.8 mph - N/A   Clear
8:55 AM 50.2 °F - 36.7 °F 60% 30.06 in 10.0 mi ESE 5.8 mph - N/A   Clear
9:15 AM 53.2 °F - 36.5 °F 53% 30.05 in 10.0 mi ESE 8.1 mph - N/A   Clear
9:35 AM 55.6 °F - 36.1 °F 48% 30.04 in 10.0 mi ESE 8.1 mph - N/A   Clear
9:55 AM 58.1 °F - 36.5 °F 44% 30.03 in 10.0 mi ESE 9.2 mph - N/A   Clear
10:15 AM 60.3 °F - 36.7 °F 41% 30.03 in 10.0 mi SE 6.9 mph - N/A   Clear
10:35 AM 63.3 °F - 37.8 °F 39% 30.03 in 10.0 mi ESE 6.9 mph - N/A   Clear
10:55 AM 65.1 °F - 39.0 °F 38% 30.02 in 10.0 mi SE 8.1 mph - N/A   Clear
11:15 AM 66.7 °F - 40.3 °F 38% 30.01 in 10.0 mi South 9.2 mph - N/A   Clear
11:35 AM 68.2 °F - 40.8 °F 37% 30.00 in 10.0 mi SSE 9.2 mph - N/A   Clear
11:55 AM 71.2 °F - 41.2 °F 34% 29.98 in 10.0 mi SSE 9.2 mph - N/A   Clear
12:15 PM 72.5 °F - 41.7 °F 33% 29.96 in 10.0 mi SSE 8.1 mph - N/A   Clear
12:35 PM 74.1 °F - 42.4 °F 32% 29.96 in 10.0 mi South 11.5 mph 16.1 mph N/A   Clear
12:55 PM 75.7 °F - 43.3 °F 31% 29.94 in 10.0 mi South 6.9 mph 18.4 mph N/A   Clear
1:15 PM 76.5 °F - 45.1 °F 33% 29.92 in 10.0 mi SSW 9.2 mph 18.4 mph N/A   Clear
1:35 PM 77.9 °F - 46.9 °F 33% 29.91 in 10.0 mi SW 11.5 mph 18.4 mph N/A   Clear
1:55 PM 79.5 °F - 48.2 °F 33% 29.89 in 10.0 mi SW 10.4 mph 17.3 mph N/A   Clear
2:15 PM 79.9 °F - 51.4 °F 37% 29.87 in 10.0 mi SSW 11.5 mph 24.2 mph N/A   Clear
2:35 PM 79.7 °F - 53.8 °F 41% 29.86 in 10.0 mi North - - N/A   Clear
2:55 PM 78.3 °F - 53.6 °F 42% 29.85 in 10.0 mi SSW 12.7 mph 24.2 mph N/A   Clear
3:15 PM 79.5 °F - 54.7 °F 42% 29.85 in 10.0 mi South 9.2 mph - N/A   Clear
3:35 PM 82.4 °F - 55.9 °F 40% 29.85 in 10.0 mi SSW 16.1 mph 20.7 mph N/A   Clear
3:55 PM 81.3 °F - 55.9 °F 42% 29.85 in 10.0 mi SSW 12.7 mph 23.0 mph N/A   Clear
4:15 PM 80.8 °F - 55.8 °F 42% 29.84 in 10.0 mi SSW 11.5 mph 20.7 mph N/A   Clear
4:35 PM 80.6 °F - 55.8 °F 42% 29.85 in 10.0 mi SSW 12.7 mph 19.6 mph N/A   Clear
4:55 PM 79.7 °F - 57.2 °F 46% 29.84 in 10.0 mi SSW 11.5 mph 16.1 mph N/A   Clear
5:15 PM 78.8 °F - 57.7 °F 48% 29.83 in 10.0 mi SSW 15.0 mph 21.9 mph N/A   Clear
5:35 PM 77.5 °F - 58.1 °F 51% 29.83 in 10.0 mi South 8.1 mph 16.1 mph N/A   Clear
5:55 PM 75.7 °F - 59.0 °F 56% 29.83 in 10.0 mi South 8.1 mph - N/A   Clear
6:15 PM 74.3 °F - 60.4 °F 62% 29.83 in 10.0 mi South 9.2 mph - N/A   Clear
6:35 PM 73.0 °F - 60.8 °F 65% 29.84 in 10.0 mi South 6.9 mph - N/A   Clear
6:55 PM 72.5 °F - 61.3 °F 68% 29.85 in 10.0 mi South 8.1 mph - N/A   Clear
7:15 PM 72.1 °F - 61.3 °F 69% 29.85 in 10.0 mi SSW 9.2 mph - N/A   Clear
7:35 PM 71.8 °F - 61.2 °F 69% 29.86 in 10.0 mi South 9.2 mph - N/A   Clear
7:55 PM 71.1 °F - 61.2 °F 71% 29.86 in 10.0 mi SSW 8.1 mph - N/A   Clear
8:15 PM 70.9 °F - 61.2 °F 71% 29.87 in 10.0 mi SSW 6.9 mph - N/A   Clear
8:35 PM 70.7 °F - 61.3 °F 72% 29.87 in 10.0 mi SSW 6.9 mph - N/A   Clear
8:55 PM 70.7 °F - 61.3 °F 72% 29.88 in 10.0 mi SSW 6.9 mph - N/A   Clear
9:35 PM 69.8 °F - 61.0 °F 73% 29.89 in 10.0 mi SSW 6.9 mph - N/A   Clear
9:55 PM 69.3 °F - 61.0 °F 75% 29.89 in 10.0 mi South 6.9 mph - N/A   Clear
10:15 PM 68.5 °F - 60.8 °F 76% 29.89 in 10.0 mi SSW 5.8 mph - N/A   Clear
10:35 PM 68.9 °F - 61.0 °F 76% 29.89 in 10.0 mi SSW 6.9 mph - N/A   Clear
10:55 PM 68.2 °F - 60.8 °F 77% 29.90 in 10.0 mi SSW 4.6 mph - N/A   Clear
11:35 PM 64.9 °F - 60.4 °F 85% 29.91 in 10.0 mi ENE 3.5 mph - N/A   Clear
11:55 PM 65.3 °F - 60.8 °F 85% 29.90 in 10.0 mi Calm Calm - N/A   Clear